createdAt,value
2022-12-05T00:01:43.021Z,24.63
2022-12-05T00:04:15.184Z,25.07
2022-12-05T00:06:47.626Z,26.63
2022-12-05T00:09:16.961Z,25.00
2022-12-05T00:11:47.278Z,25.07
2022-12-05T00:14:19.799Z,26.60
2022-12-05T00:16:48.519Z,25.03
2022-12-05T00:19:20.514Z,25.43
2022-12-05T00:21:50.622Z,26.00
2022-12-05T00:24:20.106Z,25.53
2022-12-05T00:26:48.743Z,25.50
2022-12-05T00:29:18.825Z,25.57
2022-12-05T00:31:47.818Z,26.43
2022-12-05T00:34:16.552Z,28.23
2022-12-05T00:36:45.732Z,26.17
2022-12-05T00:39:16.755Z,25.47
2022-12-05T00:41:45.796Z,26.53
2022-12-05T00:44:18.295Z,27.67
2022-12-05T00:46:46.689Z,27.40
2022-12-05T00:49:15.688Z,26.13
2022-12-05T00:51:44.983Z,26.23
2022-12-05T00:54:17.580Z,27.73
2022-12-05T00:56:46.869Z,27.40
2022-12-05T00:59:21.208Z,27.83
2022-12-05T01:01:51.531Z,27.20
2022-12-05T01:04:23.729Z,28.47
2022-12-05T01:06:55.377Z,29.37
2022-12-05T01:09:26.310Z,27.67
2022-12-05T01:11:55.359Z,27.60
2022-12-05T01:14:25.490Z,26.70
2022-12-05T01:16:56.134Z,27.93
2022-12-05T01:19:27.054Z,27.93
2022-12-05T01:21:56.278Z,28.20
2022-12-05T01:24:27.991Z,28.57
2022-12-05T01:26:58.431Z,27.97
2022-12-05T01:29:27.515Z,29.33
2022-12-05T01:31:56.431Z,28.50
2022-12-05T01:34:25.125Z,27.23
2022-12-05T01:36:54.018Z,29.00
2022-12-05T01:39:22.868Z,30.93
2022-12-05T01:41:52.725Z,28.47
2022-12-05T01:44:57.950Z,28.53
2022-12-05T01:47:28.191Z,27.63
2022-12-05T01:49:56.768Z,27.73
2022-12-05T01:52:27.471Z,29.57
2022-12-05T01:54:58.571Z,31.00
2022-12-05T01:57:28.732Z,29.07
2022-12-05T02:00:01.486Z,29.80
2022-12-05T02:02:31.208Z,29.27
2022-12-05T02:05:06.502Z,28.33
2022-12-05T02:07:36.426Z,29.77
2022-12-05T02:10:06.011Z,27.90
2022-12-05T02:12:38.953Z,30.10
2022-12-05T02:15:20.661Z,28.40
2022-12-05T02:17:56.910Z,27.60
2022-12-05T02:20:40.468Z,28.10
2022-12-05T02:23:44.462Z,29.53
2022-12-05T02:26:40.349Z,28.53
2022-12-05T02:29:51.652Z,31.00
2022-12-05T02:32:28.723Z,27.37
2022-12-05T02:35:01.496Z,25.83
2022-12-05T02:37:35.979Z,28.67
2022-12-05T02:40:12.302Z,26.37
2022-12-05T02:42:47.036Z,26.27
2022-12-05T02:45:19.209Z,28.80
2022-12-05T02:47:50.753Z,28.53
2022-12-05T02:50:25.163Z,28.90
2022-12-05T02:52:55.929Z,29.03
2022-12-05T02:55:26.304Z,28.27
2022-12-05T02:57:59.482Z,29.53
2022-12-05T03:00:29.403Z,29.70
2022-12-05T03:02:59.862Z,30.00
2022-12-05T03:05:39.197Z,28.93
2022-12-05T03:08:11.270Z,28.77
2022-12-05T03:10:42.993Z,30.20
2022-12-05T03:13:15.962Z,29.53
2022-12-05T03:15:49.617Z,28.93
2022-12-05T03:18:22.440Z,28.83
2022-12-05T03:20:56.124Z,28.70
2022-12-05T03:23:30.706Z,29.43
2022-12-05T03:26:12.317Z,29.00
2022-12-05T03:28:51.355Z,29.03
2022-12-05T03:31:26.848Z,29.27
2022-12-05T03:34:00.387Z,28.70
2022-12-05T03:36:35.595Z,28.13
2022-12-05T03:39:10.185Z,29.53
2022-12-05T03:41:45.344Z,28.30
2022-12-05T03:44:19.945Z,28.73
2022-12-05T03:46:57.647Z,29.27
2022-12-05T03:49:34.240Z,29.20
2022-12-05T03:52:10.333Z,29.13
2022-12-05T03:54:42.266Z,27.87
2022-12-05T03:57:17.009Z,27.83
2022-12-05T03:59:48.350Z,28.47
2022-12-05T04:02:24.877Z,28.47
2022-12-05T04:04:58.720Z,27.07
2022-12-05T04:07:28.430Z,29.17
2022-12-05T04:10:00.738Z,28.17
2022-12-05T04:12:32.694Z,27.80
2022-12-05T04:15:08.583Z,28.23
2022-12-05T04:17:51.897Z,27.50
2022-12-05T04:20:44.418Z,27.97
2022-12-05T04:23:13.075Z,25.93
2022-12-05T04:25:50.411Z,26.17
2022-12-05T04:28:28.884Z,28.33
2022-12-05T04:31:04.894Z,28.70
2022-12-05T04:33:41.003Z,28.13
2022-12-05T04:36:14.631Z,28.37
2022-12-05T04:38:49.394Z,26.70
2022-12-05T04:41:25.014Z,28.33
2022-12-05T04:43:56.819Z,26.03
2022-12-05T04:46:27.194Z,28.13
2022-12-05T04:49:00.045Z,28.33
2022-12-05T04:51:32.460Z,27.23
2022-12-05T04:54:05.802Z,28.27
2022-12-05T04:56:39.227Z,27.93
2022-12-05T04:59:08.033Z,29.17
2022-12-05T05:01:43.213Z,29.30
2022-12-05T05:04:16.276Z,27.23
2022-12-05T05:06:45.540Z,27.33
2022-12-05T05:09:14.389Z,26.87
2022-12-05T05:11:42.940Z,28.07
2022-12-05T05:14:11.455Z,26.33
2022-12-05T05:16:43.675Z,26.37
2022-12-05T05:19:14.555Z,27.97
2022-12-05T05:21:44.060Z,30.43
2022-12-05T05:24:15.561Z,30.03
2022-12-05T05:26:49.182Z,27.83
2022-12-05T05:29:21.263Z,28.77
2022-12-05T05:31:50.009Z,28.67
2022-12-05T05:34:20.361Z,28.63
2022-12-05T05:36:53.105Z,31.07
2022-12-05T05:39:21.546Z,29.57
2022-12-05T05:41:51.891Z,29.53
2022-12-05T05:44:20.269Z,31.00
2022-12-05T05:46:48.957Z,29.20
2022-12-05T05:49:17.249Z,30.63
2022-12-05T05:51:47.649Z,30.27
2022-12-05T05:54:16.908Z,30.63
2022-12-05T05:56:45.529Z,29.00
2022-12-05T05:59:14.830Z,27.87
2022-12-05T06:01:43.260Z,26.90
2022-12-05T06:04:12.070Z,27.00
2022-12-05T06:06:42.386Z,27.33
2022-12-05T06:09:12.595Z,27.83
2022-12-05T06:11:41.147Z,26.20
2022-12-05T06:14:13.214Z,24.13
2022-12-05T06:16:42.227Z,27.40
2022-12-05T06:19:10.730Z,26.40
2022-12-05T06:21:39.163Z,25.93
2022-12-05T06:24:08.823Z,24.07
2022-12-05T06:26:38.854Z,23.07
2022-12-05T06:29:07.337Z,24.10
2022-12-05T06:31:37.609Z,23.63
2022-12-05T06:34:07.174Z,23.23
2022-12-05T06:36:35.493Z,22.63
2022-12-05T06:39:04.206Z,20.43
2022-12-05T06:41:33.925Z,24.00
2022-12-05T06:44:04.350Z,22.13
2022-12-05T06:46:33.623Z,23.87
2022-12-05T06:49:05.546Z,30.40
2022-12-05T06:51:34.407Z,24.80
2022-12-05T06:54:03.127Z,25.20
2022-12-05T06:56:31.855Z,22.83
2022-12-05T06:59:00.153Z,26.43
2022-12-05T07:01:42.672Z,22.43
2022-12-05T07:04:16.855Z,23.20
2022-12-05T07:06:50.540Z,23.30
2022-12-05T07:09:20.000Z,22.03
2022-12-05T07:11:49.646Z,23.13
2022-12-05T07:14:45.936Z,23.10
2022-12-05T07:17:22.182Z,23.27
2022-12-05T07:19:51.305Z,22.17
2022-12-05T07:22:20.531Z,23.73
2022-12-05T07:24:49.506Z,23.00
2022-12-05T07:27:25.110Z,24.83
2022-12-05T07:29:55.617Z,20.43
2022-12-05T07:32:25.554Z,22.07
2022-12-05T07:34:55.706Z,20.57
2022-12-05T07:37:24.901Z,21.57
2022-12-05T07:39:54.006Z,23.50
2022-12-05T07:42:22.719Z,22.13
2022-12-05T07:44:51.068Z,20.57
2022-12-05T07:47:19.457Z,20.10
2022-12-05T07:49:49.889Z,21.50
2022-12-05T07:52:18.526Z,20.80
2022-12-05T07:54:46.961Z,22.53
2022-12-05T07:57:15.429Z,23.80
2022-12-05T07:59:45.325Z,21.73
2022-12-05T08:02:14.026Z,22.33
2022-12-05T08:04:42.468Z,23.03
2022-12-05T08:07:14.133Z,21.43
2022-12-05T08:09:42.878Z,21.27
2022-12-05T08:12:11.542Z,21.33
2022-12-05T08:14:40.651Z,16.90
2022-12-05T08:17:10.671Z,20.27
2022-12-05T08:19:42.416Z,19.33
2022-12-05T08:22:19.893Z,22.43
2022-12-05T08:24:56.107Z,19.10
2022-12-05T08:27:25.279Z,21.47
2022-12-05T08:29:57.402Z,20.77
2022-12-05T08:32:29.970Z,21.13
2022-12-05T08:34:59.294Z,18.73
2022-12-05T08:37:30.037Z,23.13
2022-12-05T08:39:58.508Z,20.50
2022-12-05T08:42:27.028Z,19.57
2022-12-05T08:44:58.668Z,18.83
2022-12-05T08:47:27.514Z,17.93
2022-12-05T08:49:56.336Z,19.77
2022-12-05T08:52:24.922Z,20.03
2022-12-05T08:54:55.539Z,19.97
2022-12-05T08:57:24.294Z,20.73
2022-12-05T08:59:52.582Z,20.00
2022-12-05T09:02:21.462Z,20.90
2022-12-05T09:04:54.004Z,20.87
2022-12-05T09:07:23.034Z,22.03
2022-12-05T09:09:52.589Z,21.60
2022-12-05T09:12:24.123Z,20.33
2022-12-05T09:14:53.997Z,20.57
2022-12-05T09:17:24.316Z,21.00
2022-12-05T09:19:53.490Z,20.00
2022-12-05T09:22:28.400Z,22.63
2022-12-05T09:24:57.185Z,21.67
2022-12-05T09:27:30.102Z,18.87
2022-12-05T09:29:58.564Z,16.83
2022-12-05T09:32:27.354Z,19.47
2022-12-05T09:34:59.466Z,18.10
2022-12-05T09:37:39.295Z,18.90
2022-12-05T09:40:18.238Z,17.93
2022-12-05T09:42:59.777Z,20.17
2022-12-05T09:45:36.233Z,21.03
2022-12-05T09:48:12.551Z,19.77
2022-12-05T09:50:48.304Z,18.00
2022-12-05T09:53:28.673Z,19.17
2022-12-05T09:56:03.665Z,21.90
2022-12-05T09:58:43.640Z,19.27
2022-12-05T10:01:28.633Z,21.03
2022-12-05T10:04:23.169Z,21.67
2022-12-05T10:07:04.858Z,22.13
2022-12-05T10:10:02.155Z,18.80
2022-12-05T10:12:50.182Z,21.87
2022-12-05T10:15:28.264Z,19.33
2022-12-05T10:18:03.544Z,20.20
2022-12-05T10:20:38.028Z,20.27
2022-12-05T10:23:28.208Z,21.67
2022-12-05T10:26:06.556Z,22.03
2022-12-05T10:28:43.071Z,21.90
2022-12-05T10:31:21.158Z,22.20
2022-12-05T10:33:58.985Z,22.67
2022-12-05T10:36:27.810Z,21.23
2022-12-05T10:38:57.438Z,20.63
2022-12-05T10:41:31.595Z,19.13
2022-12-05T10:44:01.044Z,22.23
2022-12-05T10:46:31.625Z,21.77
2022-12-05T10:49:01.146Z,21.73
2022-12-05T10:51:35.797Z,23.30
2022-12-05T10:54:18.684Z,23.33
2022-12-05T10:56:48.667Z,20.27
2022-12-05T10:59:24.311Z,19.97
2022-12-05T11:01:57.803Z,22.23
2022-12-05T11:04:31.623Z,21.23
2022-12-05T11:07:03.166Z,19.73
2022-12-05T11:09:34.846Z,23.67
2022-12-05T11:12:18.561Z,21.97
2022-12-05T11:15:00.584Z,19.73
2022-12-05T11:17:35.289Z,23.73
2022-12-05T11:20:43.048Z,19.50
2022-12-05T11:23:24.515Z,21.17
2022-12-05T11:25:58.945Z,22.27
2022-12-05T11:28:35.614Z,21.27
2022-12-05T11:31:10.187Z,20.13
2022-12-05T11:33:41.208Z,21.63
2022-12-05T11:36:16.663Z,21.80
2022-12-05T11:38:51.532Z,18.33
2022-12-05T11:41:38.530Z,22.43
2022-12-05T11:44:24.834Z,21.10
2022-12-05T11:47:04.542Z,21.80
2022-12-05T11:50:16.725Z,22.17
2022-12-05T11:53:01.287Z,20.57
2022-12-05T11:55:37.039Z,22.87
2022-12-05T11:58:43.344Z,19.47
2022-12-05T12:01:27.267Z,23.23
2022-12-05T12:04:40.047Z,44.73
2022-12-05T12:07:35.802Z,50.97
2022-12-05T12:10:17.253Z,29.67
2022-12-05T12:13:00.556Z,22.30
2022-12-05T12:15:50.413Z,37.93
2022-12-05T12:18:40.930Z,20.80
2022-12-05T12:21:19.213Z,22.23
2022-12-05T12:24:04.374Z,25.77
2022-12-05T12:26:42.953Z,61.23
2022-12-05T12:29:23.598Z,85.63
2022-12-05T12:32:05.882Z,53.27
2022-12-05T12:35:06.218Z,26.10
2022-12-05T12:37:46.355Z,27.10
2022-12-05T12:40:25.400Z,26.53
2022-12-05T12:43:06.983Z,20.90
2022-12-05T12:45:53.522Z,19.10
2022-12-05T12:48:40.292Z,20.53
2022-12-05T12:51:14.863Z,25.17
2022-12-05T12:54:40.423Z,30.07
2022-12-05T12:57:23.966Z,18.63
2022-12-05T13:00:05.642Z,20.43
2022-12-05T13:02:39.238Z,26.20
2022-12-05T13:05:23.970Z,21.20
2022-12-05T13:07:57.263Z,18.57
2022-12-05T13:10:33.642Z,16.53
2022-12-05T13:13:06.348Z,18.73
2022-12-05T13:15:44.374Z,20.47
2022-12-05T13:18:17.287Z,20.10
2022-12-05T13:20:52.237Z,15.80
2022-12-05T13:23:25.496Z,16.53
2022-12-05T13:25:56.821Z,21.40
2022-12-05T13:28:35.417Z,22.57
2022-12-05T13:31:06.275Z,23.80
2022-12-05T13:33:40.837Z,23.03
2022-12-05T13:36:30.304Z,20.10
2022-12-05T13:39:18.805Z,26.87
2022-12-05T13:42:10.139Z,22.33
2022-12-05T13:44:45.922Z,20.43
2022-12-05T13:47:33.786Z,21.07
2022-12-05T13:50:13.981Z,18.93
2022-12-05T13:52:52.717Z,19.03
2022-12-05T13:55:35.321Z,19.30
2022-12-05T13:58:36.853Z,24.73
2022-12-05T14:01:44.872Z,30.60
2022-12-05T14:04:51.139Z,20.33
2022-12-05T14:07:45.528Z,17.20
2022-12-05T14:10:27.878Z,17.00
2022-12-05T14:13:00.495Z,18.07
2022-12-05T14:15:35.866Z,17.30
2022-12-05T14:18:17.998Z,20.33
2022-12-05T14:21:08.116Z,18.27
2022-12-05T14:23:57.254Z,35.07
2022-12-05T14:26:50.436Z,34.33
2022-12-05T14:29:44.284Z,44.37
2022-12-05T14:32:27.658Z,31.37
2022-12-05T14:35:03.415Z,23.00
2022-12-05T14:37:50.056Z,20.17
2022-12-05T14:40:26.266Z,29.43
2022-12-05T14:42:58.044Z,24.90
2022-12-05T14:45:32.138Z,23.97
2022-12-05T14:48:05.606Z,30.27
2022-12-05T14:50:51.307Z,39.43
2022-12-05T14:53:50.487Z,29.27
2022-12-05T14:56:25.096Z,24.00
2022-12-05T14:59:24.339Z,23.70
2022-12-05T15:01:59.162Z,24.67
2022-12-05T15:04:48.209Z,25.37
2022-12-05T15:07:29.025Z,25.60
2022-12-05T15:10:10.719Z,31.53
2022-12-05T15:12:49.519Z,28.10
2022-12-05T15:15:30.460Z,38.23
2022-12-05T15:18:07.870Z,39.20
2022-12-05T15:20:50.094Z,47.73
2022-12-05T15:23:57.918Z,49.57
2022-12-05T15:29:33.296Z,53.67
2022-12-05T15:32:08.895Z,46.87
2022-12-05T15:34:47.210Z,48.90
2022-12-05T15:37:24.673Z,77.37
2022-12-05T15:40:05.492Z,59.40
2022-12-05T15:42:55.430Z,57.17
2022-12-05T15:45:27.085Z,53.13
2022-12-05T15:48:15.279Z,38.40
2022-12-05T15:50:58.283Z,37.00
2022-12-05T15:53:38.383Z,29.30
2022-12-05T15:56:18.299Z,27.03
2022-12-05T15:58:53.443Z,22.53
2022-12-05T16:01:32.170Z,20.03
2022-12-05T16:04:29.795Z,20.90
2022-12-05T16:07:08.431Z,21.50
2022-12-05T16:09:47.714Z,24.40
2022-12-05T16:12:33.076Z,26.10
2022-12-05T16:15:16.044Z,23.87
2022-12-05T16:17:51.694Z,26.00
2022-12-05T16:20:34.257Z,28.03
2022-12-05T16:23:25.409Z,27.53
2022-12-05T16:26:27.094Z,26.90
2022-12-05T16:29:06.421Z,31.67
2022-12-05T16:31:48.481Z,30.07
2022-12-05T16:34:21.925Z,27.17
2022-12-05T16:36:59.876Z,29.33
2022-12-05T16:39:32.974Z,26.17
2022-12-05T16:42:10.404Z,28.13
2022-12-05T16:45:03.895Z,29.10
2022-12-05T16:48:18.697Z,28.10
2022-12-05T16:50:48.491Z,30.97
2022-12-05T16:53:29.249Z,33.27
2022-12-05T16:55:59.401Z,34.67
2022-12-05T16:58:32.934Z,34.30
2022-12-05T17:01:08.311Z,44.50
2022-12-05T17:03:41.120Z,42.67
2022-12-05T17:06:17.042Z,33.83
2022-12-05T17:09:02.046Z,31.70
2022-12-05T17:11:42.112Z,34.43
2022-12-05T17:14:18.700Z,27.57
2022-12-05T17:16:55.081Z,23.40
2022-12-05T17:19:44.363Z,22.80
2022-12-05T17:22:20.726Z,21.50
2022-12-05T17:24:55.497Z,28.00
2022-12-05T17:27:29.996Z,30.90
2022-12-05T17:30:12.593Z,31.57
2022-12-05T17:32:59.468Z,29.03
2022-12-05T17:35:48.462Z,25.23
2022-12-05T17:38:23.994Z,24.50
2022-12-05T17:41:07.028Z,30.43
2022-12-05T17:43:38.673Z,28.83
2022-12-05T17:46:16.784Z,36.53
2022-12-05T17:48:48.728Z,32.10
2022-12-05T17:51:48.077Z,32.93
2022-12-05T17:54:28.466Z,31.00
2022-12-05T17:57:02.459Z,28.40
2022-12-05T17:59:31.886Z,27.63
2022-12-05T18:02:21.371Z,25.43
2022-12-05T18:05:03.949Z,22.93
2022-12-05T18:07:41.941Z,24.83
2022-12-05T18:10:17.543Z,24.47
2022-12-05T18:12:52.996Z,26.53
2022-12-05T18:15:31.497Z,24.00
2022-12-05T18:18:03.544Z,22.07
2022-12-05T18:20:38.745Z,29.30
2022-12-05T18:23:09.241Z,31.37
2022-12-05T18:25:41.962Z,30.83
2022-12-05T18:28:17.781Z,29.73
2022-12-05T18:30:49.657Z,32.67
2022-12-05T18:33:23.134Z,29.97
2022-12-05T18:35:59.919Z,33.07
2022-12-05T18:38:36.192Z,32.03
2022-12-05T18:41:12.167Z,33.37
2022-12-05T18:43:46.089Z,31.23
2022-12-05T18:46:17.107Z,31.07
2022-12-05T18:48:47.859Z,29.00
2022-12-05T18:51:21.880Z,30.13
2022-12-05T18:53:59.339Z,31.10
2022-12-05T18:56:34.401Z,33.50
2022-12-05T18:59:10.871Z,28.17
2022-12-05T19:01:49.626Z,27.83
2022-12-05T19:04:22.869Z,28.43
2022-12-05T19:06:54.021Z,26.60
2022-12-05T19:09:32.850Z,25.33
2022-12-05T19:12:04.821Z,28.37
2022-12-05T19:14:35.639Z,31.10
2022-12-05T19:17:09.964Z,28.63
2022-12-05T19:19:39.266Z,26.23
2022-12-05T19:22:08.789Z,26.97
2022-12-05T19:24:44.371Z,27.27
2022-12-05T19:27:18.634Z,28.00
2022-12-05T19:29:47.915Z,28.73
2022-12-05T19:32:17.299Z,27.60
2022-12-05T19:34:50.467Z,27.03
2022-12-05T19:37:19.935Z,31.57
2022-12-05T19:39:55.780Z,31.97
2022-12-05T19:42:31.557Z,32.40
2022-12-05T19:45:09.490Z,26.13
2022-12-05T19:47:45.729Z,32.63
2022-12-05T19:50:19.372Z,34.03
2022-12-05T19:52:54.270Z,34.90
2022-12-05T19:55:29.096Z,45.40
2022-12-05T19:57:58.547Z,42.93
2022-12-05T20:00:40.841Z,41.40
2022-12-05T20:03:15.062Z,42.50
2022-12-05T20:05:44.779Z,44.50
2022-12-05T20:08:16.474Z,39.00
2022-12-05T20:10:51.124Z,40.43
2022-12-05T20:13:46.062Z,41.43
2022-12-05T20:16:21.797Z,37.77
2022-12-05T20:18:59.637Z,41.23
2022-12-05T20:21:34.846Z,52.37
2022-12-05T20:24:08.729Z,56.47
2022-12-05T20:26:49.786Z,49.23
2022-12-05T20:29:28.285Z,46.10
2022-12-05T20:32:02.940Z,48.97
2022-12-05T20:34:34.276Z,44.30
2022-12-05T20:37:06.765Z,40.47
2022-12-05T20:39:48.569Z,46.73
2022-12-05T20:42:23.527Z,47.13
2022-12-05T20:44:55.624Z,39.83
2022-12-05T20:47:26.384Z,36.93
2022-12-05T20:50:00.035Z,34.30
2022-12-05T20:52:41.013Z,31.70
2022-12-05T20:55:15.489Z,30.07
2022-12-05T20:57:53.629Z,29.23
2022-12-05T21:00:32.016Z,28.50
2022-12-05T21:03:16.999Z,29.73
2022-12-05T21:05:54.035Z,30.27
2022-12-05T21:08:43.605Z,28.87
2022-12-05T21:11:31.214Z,34.00
2022-12-05T21:14:09.653Z,31.23
2022-12-05T21:16:44.249Z,34.30
2022-12-05T21:19:28.551Z,33.47
2022-12-05T21:22:03.256Z,34.60
2022-12-05T21:24:39.674Z,34.03
2022-12-05T21:27:17.468Z,30.03
2022-12-05T21:29:50.119Z,35.07
2022-12-05T21:32:18.995Z,28.77
2022-12-05T21:34:48.695Z,30.83
2022-12-05T21:37:21.004Z,32.97
2022-12-05T21:39:58.202Z,34.30
2022-12-05T21:42:31.658Z,33.43
2022-12-05T21:45:08.000Z,36.07
2022-12-05T21:47:37.235Z,35.20
2022-12-05T21:50:10.691Z,32.83
2022-12-05T21:52:44.224Z,40.13
2022-12-05T21:55:16.888Z,41.53
2022-12-05T21:57:50.468Z,39.83
2022-12-05T22:00:37.198Z,43.60
2022-12-05T22:03:09.172Z,40.40
2022-12-05T22:05:48.116Z,39.20
2022-12-05T22:08:20.388Z,36.23
2022-12-05T22:10:53.876Z,35.40
2022-12-05T22:13:24.850Z,35.47
2022-12-05T22:16:06.126Z,35.33
2022-12-05T22:18:38.929Z,32.00
2022-12-05T22:21:09.813Z,33.93
2022-12-05T22:23:42.022Z,31.33
2022-12-05T22:26:15.418Z,33.40
2022-12-05T22:28:51.301Z,32.70
2022-12-05T22:31:23.330Z,28.60
2022-12-05T22:33:53.032Z,27.23
2022-12-05T22:36:29.175Z,27.03
2022-12-05T22:39:08.572Z,35.13
2022-12-05T22:41:38.487Z,31.87
2022-12-05T22:44:11.570Z,30.43
2022-12-05T22:46:49.753Z,29.43
2022-12-05T22:49:25.210Z,30.43
2022-12-05T22:51:56.027Z,32.33
2022-12-05T22:54:30.461Z,30.40
2022-12-05T22:57:00.232Z,34.53
2022-12-05T22:59:37.754Z,38.97
2022-12-05T23:02:19.671Z,37.47
2022-12-05T23:05:01.712Z,35.17
2022-12-05T23:07:32.334Z,33.80
2022-12-05T23:10:04.891Z,35.33
2022-12-05T23:12:34.043Z,33.93
2022-12-05T23:15:06.630Z,36.27
2022-12-05T23:17:49.749Z,31.43
2022-12-05T23:20:18.614Z,33.83
2022-12-05T23:22:47.831Z,32.50
2022-12-05T23:25:16.368Z,29.53
2022-12-05T23:27:44.910Z,30.93
2022-12-05T23:30:15.203Z,35.53
2022-12-05T23:32:49.640Z,33.00
2022-12-05T23:35:18.886Z,30.43
2022-12-05T23:37:48.830Z,35.17
2022-12-05T23:40:18.680Z,49.17
2022-12-05T23:42:47.194Z,43.70
2022-12-05T23:45:15.749Z,34.83
2022-12-05T23:47:45.828Z,38.13
2022-12-05T23:50:15.411Z,37.70
2022-12-05T23:52:43.883Z,49.37
2022-12-05T23:55:12.598Z,38.60
2022-12-05T23:57:41.004Z,35.40
